createdAt,value
2022-09-03T00:04:11.749Z,16.21
2022-09-03T00:09:15.859Z,16.20
2022-09-03T00:14:20.054Z,16.23
2022-09-03T00:19:24.197Z,16.29
2022-09-03T00:24:28.366Z,16.28
2022-09-03T00:29:32.513Z,16.33
2022-09-03T00:34:36.706Z,16.26
2022-09-03T00:39:40.920Z,16.23
2022-09-03T00:44:44.999Z,16.19
2022-09-03T00:49:49.187Z,16.31
2022-09-03T00:54:53.317Z,16.27
2022-09-03T00:59:57.469Z,16.27
2022-09-03T01:05:01.670Z,16.25
2022-09-03T01:10:05.809Z,16.27
2022-09-03T01:15:08.096Z,16.25
2022-09-03T01:20:12.221Z,16.23
2022-09-03T01:25:14.507Z,16.26
2022-09-03T01:30:18.701Z,16.32
2022-09-03T01:35:22.811Z,16.25
2022-09-03T01:40:26.997Z,16.22
2022-09-03T01:45:31.141Z,16.21
2022-09-03T01:50:35.325Z,16.19
2022-09-03T01:55:39.447Z,16.18
2022-09-03T02:00:43.632Z,16.16
2022-09-03T02:05:47.774Z,16.06
2022-09-03T02:10:51.921Z,15.96
2022-09-03T02:15:56.193Z,16.05
2022-09-03T02:21:00.289Z,15.93
2022-09-03T02:26:04.420Z,15.79
2022-09-03T02:31:08.631Z,15.69
2022-09-03T02:36:12.729Z,15.50
2022-09-03T02:41:16.927Z,15.42
2022-09-03T02:46:21.156Z,15.23
2022-09-03T02:51:25.230Z,14.97
2022-09-03T02:56:27.499Z,14.69
2022-09-03T03:01:31.768Z,14.44
2022-09-03T03:06:35.812Z,14.31
2022-09-03T03:11:38.063Z,14.26
2022-09-03T03:16:42.313Z,14.23
2022-09-03T03:21:44.508Z,14.12
2022-09-03T03:26:48.667Z,14.01
2022-09-03T03:31:52.863Z,14.04
2022-09-03T03:36:56.978Z,14.00
2022-09-03T03:42:01.126Z,13.82
2022-09-03T03:47:05.326Z,13.81
2022-09-03T03:52:09.492Z,13.80
2022-09-03T03:57:13.650Z,13.66
2022-09-03T04:02:17.909Z,13.49
2022-09-03T04:07:21.996Z,13.26
2022-09-03T04:12:26.140Z,13.10
2022-09-03T04:17:30.312Z,12.93
2022-09-03T04:22:34.488Z,12.80
2022-09-03T04:27:38.607Z,12.68
2022-09-03T04:32:42.763Z,12.56
2022-09-03T04:37:46.910Z,12.45
2022-09-03T04:42:51.089Z,12.53
2022-09-03T04:47:55.242Z,12.68
2022-09-03T04:52:59.398Z,12.59
2022-09-03T04:58:03.566Z,12.50
2022-09-03T05:03:07.707Z,12.37
2022-09-03T05:08:10.024Z,12.23
2022-09-03T05:13:14.168Z,12.27
2022-09-03T05:18:18.374Z,12.37
2022-09-03T05:23:22.516Z,12.47
2022-09-03T05:28:26.660Z,12.41
2022-09-03T05:33:30.817Z,12.28
2022-09-03T05:38:35.034Z,12.29
2022-09-03T05:43:39.145Z,12.18
2022-09-03T05:48:43.271Z,12.27
2022-09-03T05:53:47.462Z,12.53
2022-09-03T05:58:51.607Z,12.66
2022-09-03T06:03:55.775Z,12.77
2022-09-03T06:08:59.943Z,12.89
2022-09-03T06:14:04.092Z,13.02
2022-09-03T06:19:08.261Z,13.33
2022-09-03T06:24:12.415Z,13.61
2022-09-03T06:29:16.564Z,13.85
2022-09-03T06:34:20.749Z,14.15
2022-09-03T06:39:24.969Z,14.38
2022-09-03T06:44:29.050Z,14.64
2022-09-03T06:49:33.200Z,14.96
2022-09-03T06:54:35.449Z,15.24
2022-09-03T06:59:39.669Z,15.43
2022-09-03T07:04:43.796Z,15.75
2022-09-03T07:09:48.567Z,16.16
2022-09-03T07:14:52.144Z,16.55
2022-09-03T07:19:56.296Z,16.97
2022-09-03T07:25:00.444Z,17.46
2022-09-03T07:30:04.610Z,17.87
2022-09-03T07:35:08.781Z,18.17
2022-09-03T07:40:12.926Z,18.40
2022-09-03T07:45:17.075Z,18.93
2022-09-03T07:50:21.320Z,19.08
2022-09-03T07:55:25.384Z,19.14
2022-09-03T08:00:29.589Z,19.45
2022-09-03T08:05:33.714Z,19.65
2022-09-03T08:10:37.864Z,19.78
2022-09-03T08:15:42.051Z,20.13
2022-09-03T08:20:46.202Z,20.24
2022-09-03T08:25:50.376Z,20.43
2022-09-03T08:30:54.540Z,20.58
2022-09-03T08:35:58.671Z,20.68
2022-09-03T08:41:00.946Z,20.92
2022-09-03T08:46:05.125Z,21.12
2022-09-03T08:51:07.371Z,21.30
2022-09-03T08:56:11.550Z,21.51
2022-09-03T09:01:13.813Z,21.67
2022-09-03T09:06:17.963Z,21.95
2022-09-03T09:11:20.221Z,22.03
2022-09-03T09:16:24.441Z,22.16
2022-09-03T09:21:28.584Z,22.35
2022-09-03T09:26:32.681Z,22.44
2022-09-03T09:31:36.919Z,22.60
2022-09-03T09:36:41.001Z,22.84
2022-09-03T09:41:45.196Z,22.93
2022-09-03T09:46:52.769Z,22.98
2022-09-03T09:51:53.512Z,22.96
2022-09-03T10:02:01.906Z,23.45
2022-09-03T10:07:05.955Z,23.50
2022-09-03T10:12:10.185Z,23.56
2022-09-03T10:17:14.314Z,23.76
2022-09-03T10:22:18.459Z,23.87
2022-09-03T10:27:22.604Z,23.75
2022-09-03T10:32:27.422Z,23.38
2022-09-03T10:37:30.954Z,23.28
2022-09-03T10:42:35.090Z,23.03
2022-09-03T10:47:39.254Z,23.34
2022-09-03T10:52:43.425Z,23.94
2022-09-03T10:57:47.565Z,24.32
2022-09-03T11:02:49.895Z,24.58
2022-09-03T11:07:54.031Z,24.69
2022-09-03T11:12:56.251Z,24.53
2022-09-03T11:18:00.420Z,24.53
2022-09-03T11:23:04.590Z,24.77
2022-09-03T11:28:08.707Z,24.63
2022-09-03T11:33:12.908Z,24.99
2022-09-03T11:38:17.071Z,25.08
2022-09-03T11:43:21.234Z,24.98
2022-09-03T11:53:29.523Z,24.98
2022-09-03T11:58:33.663Z,25.05
2022-09-03T12:03:37.877Z,24.92
2022-09-03T12:08:42.022Z,24.83
2022-09-03T12:13:48.191Z,24.58
2022-09-03T12:18:50.315Z,24.43
2022-09-03T12:23:58.037Z,24.19
2022-09-03T12:28:58.621Z,24.22
2022-09-03T12:34:02.816Z,24.50
2022-09-03T12:39:12.052Z,24.58
2022-09-03T12:44:11.126Z,24.50
2022-09-03T12:49:31.134Z,24.38
2022-09-03T12:54:19.424Z,24.05
2022-09-03T12:59:23.573Z,24.05
2022-09-03T13:04:25.853Z,24.00
2022-09-03T13:09:30.008Z,24.06
2022-09-03T13:14:32.303Z,24.21
2022-09-03T13:19:36.570Z,23.81
2022-09-03T13:24:38.732Z,23.97
2022-09-03T13:29:42.878Z,24.12
2022-09-03T13:34:47.040Z,24.32
2022-09-03T13:39:51.260Z,24.83
2022-09-03T13:44:55.340Z,25.00
2022-09-03T13:49:59.743Z,25.17
2022-09-03T13:55:03.663Z,25.57
2022-09-03T14:00:07.819Z,25.67
2022-09-03T14:05:12.017Z,26.09
2022-09-03T14:10:16.137Z,26.24
2022-09-03T14:15:20.287Z,26.69
2022-09-03T14:20:24.462Z,26.48
2022-09-03T14:25:28.634Z,25.99
2022-09-03T14:30:32.782Z,25.82
2022-09-03T14:35:36.952Z,25.42
2022-09-03T14:40:41.106Z,25.77
2022-09-03T14:45:45.343Z,25.82
2022-09-03T14:50:49.388Z,25.64
2022-09-03T14:55:53.574Z,25.70
2022-09-03T15:00:57.762Z,25.56
2022-09-03T15:06:01.885Z,25.64
2022-09-03T15:11:04.163Z,25.45
2022-09-03T15:16:08.395Z,25.19
2022-09-03T15:21:12.490Z,25.27
2022-09-03T15:26:18.725Z,25.59
2022-09-03T15:31:20.874Z,25.98
2022-09-03T15:36:24.947Z,26.56
2022-09-03T15:41:29.148Z,26.64
2022-09-03T15:46:33.291Z,26.36
2022-09-03T15:51:37.433Z,26.16
2022-09-03T15:56:42.115Z,25.79
2022-09-03T16:01:45.931Z,25.59
2022-09-03T16:06:49.903Z,25.42
2022-09-03T16:11:54.051Z,25.12
2022-09-03T16:16:58.247Z,25.03
2022-09-03T16:22:02.398Z,25.12
2022-09-03T16:27:06.554Z,25.27
2022-09-03T16:32:10.688Z,24.92
2022-09-03T16:37:14.866Z,24.62
2022-09-03T16:42:19.022Z,24.43
2022-09-03T16:47:23.199Z,24.23
2022-09-03T16:52:38.209Z,24.08
2022-09-03T16:57:29.607Z,24.02
2022-09-03T17:02:41.343Z,23.97
2022-09-03T17:07:36.011Z,23.94
2022-09-03T17:12:40.189Z,23.80
2022-09-03T17:17:44.376Z,23.57
2022-09-03T17:22:48.508Z,23.32
2022-09-03T17:27:52.684Z,23.14
2022-09-03T17:32:57.199Z,23.01
2022-09-03T17:38:01.002Z,22.85
2022-09-03T17:43:05.146Z,22.70
2022-09-03T17:48:09.312Z,22.62
2022-09-03T17:53:13.483Z,22.39
2022-09-03T17:58:17.651Z,22.25
2022-09-03T18:03:21.809Z,22.25
2022-09-03T18:08:25.955Z,22.24
2022-09-03T18:13:30.098Z,22.14
2022-09-03T18:18:34.335Z,22.01
2022-09-03T18:23:38.438Z,21.98
2022-09-03T18:28:42.576Z,21.84
2022-09-03T18:33:46.741Z,21.75
2022-09-03T18:38:50.912Z,21.59
2022-09-03T18:43:55.079Z,21.40
2022-09-03T18:48:59.306Z,21.23
2022-09-03T18:54:01.499Z,21.16
2022-09-03T18:59:05.679Z,21.05
2022-09-03T19:04:14.193Z,20.91
2022-09-03T19:09:12.538Z,20.72
2022-09-03T19:14:16.242Z,20.55
2022-09-03T19:19:24.406Z,20.39
2022-09-03T19:24:24.536Z,20.26
2022-09-03T19:29:28.731Z,20.11
2022-09-03T19:34:32.861Z,19.94
2022-09-03T19:39:37.105Z,19.84
2022-09-03T19:44:41.188Z,19.69
2022-09-03T19:49:48.377Z,19.56
2022-09-03T19:54:47.621Z,19.42
2022-09-03T19:59:51.803Z,19.29
2022-09-03T20:04:57.245Z,19.18
2022-09-03T20:10:00.096Z,19.13
2022-09-03T20:15:04.287Z,19.07
2022-09-03T20:20:08.404Z,18.96
2022-09-03T20:25:12.590Z,18.78
2022-09-03T20:30:16.759Z,18.69
2022-09-03T20:35:20.907Z,18.61
2022-09-03T20:40:25.754Z,18.38
2022-09-03T20:45:29.230Z,18.14
2022-09-03T20:50:31.490Z,18.00
2022-09-03T20:55:35.645Z,17.86
2022-09-03T21:00:38.139Z,17.66
2022-09-03T21:05:42.106Z,17.58
2022-09-03T21:10:44.331Z,17.49
2022-09-03T21:15:50.316Z,17.48
2022-09-03T21:20:53.172Z,17.43
2022-09-03T21:25:56.844Z,17.39
2022-09-03T21:31:01.140Z,17.25
2022-09-03T21:36:05.150Z,17.06
2022-09-03T21:41:09.293Z,16.89
2022-09-03T21:46:13.542Z,16.76
2022-09-03T21:51:17.640Z,16.68
2022-09-03T21:56:21.779Z,16.63
2022-09-03T22:01:26.017Z,16.56
2022-09-03T22:06:30.107Z,16.49
2022-09-03T22:11:34.253Z,16.37
2022-09-03T22:16:38.551Z,16.29
2022-09-03T22:21:42.596Z,16.24
2022-09-03T22:26:46.756Z,16.21
2022-09-03T22:31:50.929Z,16.11
2022-09-03T22:36:55.070Z,16.06
2022-09-03T22:41:59.229Z,16.02
2022-09-03T22:47:03.381Z,15.93
2022-09-03T22:52:07.522Z,15.87
2022-09-03T22:57:09.819Z,15.90
2022-09-03T23:02:13.991Z,15.85
2022-09-03T23:07:16.261Z,15.79
2022-09-03T23:12:20.394Z,15.68
2022-09-03T23:17:24.554Z,15.52
2022-09-03T23:22:28.765Z,15.43
2022-09-03T23:27:32.867Z,15.40
2022-09-03T23:32:37.037Z,15.37
2022-09-03T23:37:41.181Z,15.33
2022-09-03T23:42:45.338Z,15.26
2022-09-03T23:47:49.515Z,15.25
2022-09-03T23:52:53.715Z,15.23
2022-09-03T23:57:57.850Z,15.12
